Time;durP1;ratioP1;P1;durP2;ratioP2;P2;SDS_P1;SDS_P2;PMS_P1;PMS_P2;Temp;Humidity;BMP_temperature;BMP_pressure;BME280_temperature;BME280_humidity;BME280_pressure;Samples;Min_cycle;Max_cycle;Signal;HPM_P1;HPM_P2
2022/09/02 00:01:49;;;;;;;1.95;1.00;;;20.30;70.90;;;;;;10423833;28;20037;-64
2022/09/02 00:06:53;;;;;;;1.20;0.93;;;20.30;70.90;;;;;;10447611;28;20320;-64
2022/09/02 00:11:55;;;;;;;1.10;1.00;;;20.20;70.80;;;;;;10444225;28;20097;-66
2022/09/02 00:16:59;;;;;;;1.25;0.82;;;20.20;70.80;;;;;;10405037;28;20028;-63
2022/09/02 00:22:01;;;;;;;1.67;1.55;;;20.20;70.70;;;;;;10418581;28;20028;-64
2022/09/02 00:27:01;;;;;;;1.10;1.00;;;20.10;70.70;;;;;;10428085;28;20052;-65
2022/09/02 00:32:02;;;;;;;1.10;1.00;;;20.10;70.60;;;;;;10437017;28;20119;-66
2022/09/02 00:37:03;;;;;;;1.95;1.20;;;20.10;70.60;;;;;;10436535;28;20099;-66
2022/09/02 00:42:05;;;;;;;1.30;1.08;;;20.10;70.60;;;;;;10416922;28;20099;-65
2022/09/02 00:47:07;;;;;;;1.10;0.98;;;20.00;70.50;;;;;;10454809;28;20546;-65
2022/09/02 00:52:15;;;;;;;1.08;0.98;;;20.00;70.50;;;;;;10423102;28;20099;-65
2022/09/02 00:57:20;;;;;;;2.15;1.40;;;20.00;70.50;;;;;;10398613;28;20092;-64
2022/09/02 01:02:24;;;;;;;1.20;1.10;;;19.90;70.50;;;;;;10403932;28;20071;-66
2022/09/02 01:07:29;;;;;;;2.03;1.08;;;19.90;70.50;;;;;;10402359;28;20120;-66
2022/09/02 01:12:31;;;;;;;1.40;1.00;;;19.90;70.50;;;;;;10398312;28;20656;-64
2022/09/02 01:17:33;;;;;;;1.30;1.00;;;19.90;70.50;;;;;;10410330;28;20068;-66
2022/09/02 01:22:34;;;;;;;1.60;0.80;;;19.80;70.50;;;;;;10410167;28;20021;-64
2022/09/02 01:27:35;;;;;;;1.23;1.00;;;19.80;70.50;;;;;;10409868;28;20628;-70
2022/09/02 01:32:36;;;;;;;0.80;0.80;;;19.80;70.50;;;;;;10401300;28;20498;-65
2022/09/02 01:37:38;;;;;;;0.80;0.80;;;19.80;70.50;;;;;;10408856;28;20037;-64
2022/09/02 01:42:40;;;;;;;0.73;0.73;;;19.70;70.40;;;;;;10393152;28;20117;-65
2022/09/02 01:47:41;;;;;;;2.03;1.10;;;19.70;70.40;;;;;;10392580;28;20115;-65
2022/09/02 01:52:42;;;;;;;1.95;0.80;;;19.70;70.40;;;;;;10418557;28;20072;-67
2022/09/02 01:57:43;;;;;;;0.77;0.70;;;19.60;70.40;;;;;;10428621;28;20052;-65
2022/09/02 02:02:43;;;;;;;1.20;0.82;;;19.60;70.40;;;;;;10431437;28;20036;-66
2022/09/02 02:07:44;;;;;;;2.05;1.08;;;19.60;70.40;;;;;;10424175;28;20037;-65
2022/09/02 02:12:45;;;;;;;2.03;1.10;;;19.60;70.40;;;;;;10432767;28;20036;-65
2022/09/02 02:17:46;;;;;;;2.40;0.93;;;19.60;70.40;;;;;;10433063;28;20663;-65
2022/09/02 02:22:48;;;;;;;3.25;0.88;;;19.50;70.40;;;;;;10432084;28;20111;-65
2022/09/02 02:27:50;;;;;;;1.10;0.82;;;19.50;70.40;;;;;;10432915;28;20517;-65
2022/09/02 02:32:50;;;;;;;1.35;0.90;;;19.50;70.40;;;;;;10436481;28;20095;-66
2022/09/02 02:37:52;;;;;;;1.77;0.70;;;19.50;70.50;;;;;;10431814;28;20095;-65
2022/09/02 02:42:53;;;;;;;0.80;0.80;;;19.50;70.50;;;;;;10432338;28;20047;-65
2022/09/02 02:47:54;;;;;;;0.85;0.77;;;19.40;70.40;;;;;;10437038;28;20112;-65
2022/09/02 02:52:55;;;;;;;0.80;0.80;;;19.40;70.40;;;;;;10431528;28;20029;-66
2022/09/02 02:57:56;;;;;;;1.67;1.00;;;19.40;70.50;;;;;;10427392;28;20148;-65
2022/09/02 03:02:59;;;;;;;1.08;0.80;;;19.30;70.40;;;;;;10417115;28;20090;-68
2022/09/02 03:08:01;;;;;;;1.00;0.90;;;19.30;70.50;;;;;;10443360;28;20033;-65
2022/09/02 03:13:03;;;;;;;0.82;0.82;;;19.30;70.50;;;;;;10433376;28;20024;-66
2022/09/02 03:18:04;;;;;;;1.00;0.85;;;19.30;70.60;;;;;;10427873;28;20539;-66
2022/09/02 03:23:05;;;;;;;1.15;0.80;;;19.30;70.60;;;;;;10439031;28;20032;-64
2022/09/02 03:28:05;;;;;;;1.15;0.80;;;19.20;70.50;;;;;;10424380;28;20051;-64
2022/09/02 03:33:06;;;;;;;1.08;0.80;;;19.20;70.60;;;;;;10428479;28;20076;-66
2022/09/02 03:38:08;;;;;;;0.88;0.80;;;19.20;70.60;;;;;;10436853;28;20044;-64
2022/09/02 03:43:09;;;;;;;2.40;0.90;;;19.20;70.60;;;;;;10434778;28;20064;-65
2022/09/02 03:48:13;;;;;;;1.77;0.82;;;19.10;70.60;;;;;;10447493;28;20029;-64
2022/09/02 03:53:14;;;;;;;0.98;0.88;;;19.10;70.60;;;;;;10436910;28;20040;-65
2022/09/02 03:58:15;;;;;;;1.35;0.90;;;19.10;70.60;;;;;;10432063;28;20656;-64
2022/09/02 04:03:15;;;;;;;0.90;0.80;;;19.10;70.70;;;;;;10424310;28;20029;-64
2022/09/02 04:08:17;;;;;;;1.00;0.90;;;19.00;70.60;;;;;;10439926;28;20068;-64
2022/09/02 04:13:18;;;;;;;0.85;0.82;;;19.00;70.70;;;;;;10432265;28;20021;-65
2022/09/02 04:18:20;;;;;;;1.02;0.90;;;19.00;70.70;;;;;;10423626;28;20029;-64
2022/09/02 04:23:20;;;;;;;0.95;0.90;;;19.00;70.70;;;;;;10436070;28;20029;-64
2022/09/02 04:28:21;;;;;;;1.45;0.98;;;19.00;71.40;;;;;;10425533;28;20033;-64
2022/09/02 04:33:22;;;;;;;0.82;0.77;;;19.00;70.80;;;;;;10425890;28;20390;-65
2022/09/02 04:38:23;;;;;;;1.20;1.10;;;18.90;70.80;;;;;;10421354;28;20125;-65
2022/09/02 04:43:24;;;;;;;0.95;0.80;;;18.90;70.90;;;;;;10433505;28;20022;-65
2022/09/02 04:48:25;;;;;;;1.33;1.10;;;18.90;70.90;;;;;;10434551;28;20032;-65
2022/09/02 04:53:25;;;;;;;1.50;0.90;;;18.90;70.90;;;;;;10427440;28;20037;-63
2022/09/02 04:58:27;;;;;;;1.08;0.98;;;18.90;71.00;;;;;;10441850;28;20123;-63
2022/09/02 05:03:29;;;;;;;2.78;1.33;;;18.80;71.00;;;;;;10427407;28;20056;-64
2022/09/02 05:08:30;;;;;;;1.30;0.93;;;18.90;71.40;;;;;;10367481;28;20120;-66
2022/09/02 05:13:31;;;;;;;2.63;1.00;;;18.90;72.00;;;;;;10332909;28;20038;-64
2022/09/02 05:18:32;;;;;;;1.77;0.90;;;18.80;71.30;;;;;;10351398;28;21058;-63
2022/09/02 05:23:33;;;;;;;0.80;0.70;;;18.80;71.30;;;;;;10339273;28;20029;-64
2022/09/02 05:28:34;;;;;;;0.82;0.80;;;18.80;71.30;;;;;;10345499;28;20200;-64
2022/09/02 05:33:39;;;;;;;3.00;1.25;;;18.80;71.20;;;;;;10353164;28;20057;-64
2022/09/02 05:38:41;;;;;;;1.33;1.00;;;18.80;71.30;;;;;;10363571;28;20047;-64
2022/09/02 05:43:47;;;;;;;0.95;0.85;;;18.80;71.90;;;;;;10355107;28;20025;-64
2022/09/02 05:54:12;;;;;;;1.63;1.00;;;18.80;71.30;;;;;;10357346;28;20049;-65
2022/09/02 05:59:14;;;;;;;1.10;1.00;;;18.70;71.30;;;;;;10356398;28;20160;-66
2022/09/02 06:04:15;;;;;;;1.17;0.90;;;18.70;71.30;;;;;;10355817;28;20036;-64
2022/09/02 06:09:19;;;;;;;3.30;0.90;;;18.70;71.30;;;;;;10355832;28;20103;-63
2022/09/02 06:14:23;;;;;;;1.20;1.00;;;18.70;71.40;;;;;;10363903;28;20036;-64
2022/09/02 06:19:27;;;;;;;1.00;0.88;;;18.70;71.30;;;;;;10356570;28;20044;-63
2022/09/02 06:24:28;;;;;;;1.02;1.00;;;18.70;71.30;;;;;;10361459;28;20037;-65
2022/09/02 06:29:30;;;;;;;0.80;0.80;;;18.70;71.40;;;;;;10357292;28;20567;-64
2022/09/02 06:34:31;;;;;;;1.00;0.88;;;18.70;71.40;;;;;;10354878;28;20039;-64
2022/09/02 06:39:32;;;;;;;1.45;1.00;;;18.70;71.40;;;;;;10361506;28;20045;-64
2022/09/02 06:44:33;;;;;;;1.00;0.80;;;18.80;71.40;;;;;;10346410;28;20507;-64
2022/09/02 06:49:34;;;;;;;1.77;1.10;;;18.80;71.40;;;;;;10357034;28;21008;-64
2022/09/02 06:54:34;;;;;;;1.63;1.00;;;19.00;71.60;;;;;;10348064;28;20064;-63
2022/09/02 06:59:36;;;;;;;1.30;1.20;;;18.80;71.50;;;;;;10357101;28;20033;-64
2022/09/02 07:09:56;;;;;;;1.13;1.00;;;18.80;71.50;;;;;;10351371;28;20100;-64
2022/09/02 07:14:57;;;;;;;2.00;0.95;;;18.90;71.60;;;;;;10362131;28;20258;-65
2022/09/02 07:19:59;;;;;;;0.95;0.85;;;18.90;71.50;;;;;;10363895;28;20049;-64
2022/09/02 07:24:59;;;;;;;1.25;1.05;;;19.00;71.50;;;;;;10360450;28;20017;-65
2022/09/02 07:30:00;;;;;;;0.95;0.85;;;19.00;71.50;;;;;;10349109;28;20025;-64
2022/09/02 07:35:03;;;;;;;0.80;0.80;;;19.00;71.50;;;;;;10353476;28;20028;-65
2022/09/02 07:40:06;;;;;;;1.67;1.40;;;19.00;71.50;;;;;;10359408;28;20045;-68
2022/09/02 07:45:08;;;;;;;2.08;1.50;;;19.10;72.00;;;;;;10355329;28;20045;-67
2022/09/02 07:50:09;;;;;;;3.22;1.65;;;18.90;72.60;;;;;;10359838;28;20033;-67
2022/09/02 07:55:10;;;;;;;3.45;2.10;;;18.70;73.20;;;;;;10362144;28;20060;-65
2022/09/02 08:00:13;;;;;;;2.72;1.83;;;18.50;74.00;;;;;;10349206;28;20029;-66
2022/09/02 08:05:14;;;;;;;3.65;1.80;;;18.40;74.40;;;;;;10375007;28;20048;-65
2022/09/02 08:10:15;;;;;;;1.95;1.55;;;18.30;74.80;;;;;;10368916;28;20036;-66
2022/09/02 08:15:19;;;;;;;2.08;1.67;;;18.30;75.00;;;;;;10369065;28;20029;-67
2022/09/02 08:20:19;;;;;;;2.58;2.13;;;18.40;74.70;;;;;;10364315;28;20033;-67
2022/09/02 08:25:20;;;;;;;10.48;1.80;;;18.40;74.70;;;;;;10375647;28;20131;-66
2022/09/02 08:30:22;;;;;;;5.60;1.73;;;18.50;74.70;;;;;;10375218;28;20424;-68
2022/09/02 08:35:22;;;;;;;4.55;1.55;;;18.60;74.70;;;;;;10413430;22;20053;-66
2022/09/02 08:40:33;;;;;;;5.88;1.73;;;18.70;75.10;;;;;;10398420;28;20140;-65
2022/09/02 08:45:37;;;;;;;3.80;1.65;;;18.90;75.10;;;;;;10371758;28;20056;-68
2022/09/02 08:50:41;;;;;;;1.77;1.50;;;19.00;75.10;;;;;;10389482;28;20144;-65
2022/09/02 08:55:47;;;;;;;1.65;1.20;;;19.20;74.90;;;;;;10387226;28;20840;-66
2022/09/02 09:01:33;;;;;;;3.92;1.50;;;19.30;74.60;;;;;;10383855;28;20040;-66
2022/09/02 09:06:37;;;;;;;3.35;1.60;;;19.40;74.80;;;;;;10398601;28;20572;-67
2022/09/02 09:12:28;;;;;;;3.75;1.75;;;19.50;74.30;;;;;;10405711;28;20819;-65
2022/09/02 09:17:50;;;;;;;2.92;1.55;;;19.70;73.60;;;;;;10347416;28;20051;-66
2022/09/02 09:22:56;;;;;;;3.88;1.55;;;19.80;73.60;;;;;;10401936;28;20033;-67
2022/09/02 09:28:00;;;;;;;1.67;1.45;;;19.90;73.30;;;;;;10402518;28;20497;-66
2022/09/02 09:33:02;;;;;;;2.00;1.67;;;20.00;73.20;;;;;;10398940;28;20127;-65
2022/09/02 09:38:11;;;;;;;1.67;1.48;;;20.20;72.80;;;;;;10397624;28;20064;-65
2022/09/02 09:43:13;;;;;;;3.72;1.20;;;20.30;72.40;;;;;;10398229;28;20036;-65
2022/09/02 09:48:30;;;;;;;3.20;1.25;;;20.40;72.30;;;;;;10393962;28;20478;-66
2022/09/02 09:53:33;;;;;;;1.90;1.20;;;20.60;72.20;;;;;;10380312;28;20303;-68
2022/09/02 09:58:40;;;;;;;2.20;1.50;;;20.70;71.70;;;;;;10377308;28;20214;-65
2022/09/02 10:03:47;;;;;;;3.35;1.20;;;20.80;70.80;;;;;;10400061;28;20218;-65
2022/09/02 10:08:55;;;;;;;1.20;1.10;;;20.90;71.10;;;;;;10393658;28;21012;-67
2022/09/02 10:14:00;;;;;;;;;;;21.10;70.50;;;;;;10370707;28;21037;-66
2022/09/02 10:19:38;;;;;;;1.98;1.00;;;21.20;70.20;;;;;;10384146;28;19924;-67
2022/09/02 10:25:00;;;;;;;1.98;1.10;;;21.30;69.50;;;;;;10382811;28;20438;-66
2022/09/02 10:30:18;;;;;;;2.45;1.00;;;21.50;69.50;;;;;;10395715;28;20965;-67
2022/09/02 10:35:42;;;;;;;1.90;0.80;;;21.70;68.90;;;;;;10387928;28;20092;-67
2022/09/02 10:40:49;;;;;;;1.77;0.90;;;21.90;68.40;;;;;;10389303;28;20140;-66
2022/09/02 10:45:55;;;;;;;1.50;0.93;;;22.00;68.10;;;;;;10393071;28;20113;-66
2022/09/02 10:50:58;;;;;;;2.25;1.10;;;22.10;67.50;;;;;;10397613;28;20048;-65
2022/09/02 10:56:12;;;;;;;5.07;1.00;;;22.10;67.60;;;;;;10384112;28;20027;-66
2022/09/02 11:01:27;;;;;;;2.83;1.10;;;22.10;66.60;;;;;;10393370;28;20044;-66
2022/09/02 11:06:36;;;;;;;0.90;0.90;;;22.20;66.10;;;;;;10396759;28;20830;-66
2022/09/02 11:11:52;;;;;;;4.72;1.10;;;22.20;66.10;;;;;;10394413;28;20060;-65
2022/09/02 11:17:25;;;;;;;2.75;1.00;;;22.40;66.70;;;;;;10378886;22;20860;-67
2022/09/02 11:22:54;;;;;;;2.25;1.20;;;22.50;65.30;;;;;;10338580;28;20051;-67
2022/09/02 11:28:30;;;;;;;2.80;1.30;;;22.60;64.80;;;;;;10360800;28;20037;-67
2022/09/02 11:33:57;;;;;;;5.05;1.38;;;22.60;64.60;;;;;;10369761;28;20152;-66
2022/09/02 11:39:10;;;;;;;3.22;1.40;;;22.60;64.90;;;;;;10363709;28;20044;-67
2022/09/02 11:44:37;;;;;;;1.70;1.00;;;22.70;64.50;;;;;;10374943;28;20083;-67
2022/09/02 11:50:00;;;;;;;2.37;1.00;;;22.80;64.60;;;;;;10354857;28;20303;-67
2022/09/02 11:55:20;;;;;;;2.72;1.20;;;22.90;64.70;;;;;;10371373;28;20132;-68
2022/09/02 12:00:47;;;;;;;2.47;1.33;;;23.00;64.90;;;;;;10366637;28;20519;-67
2022/09/02 12:05:50;;;;;;;3.90;1.23;;;23.10;64.30;;;;;;10329999;28;20025;-67
2022/09/02 12:10:51;;;;;;;2.45;1.30;;;23.20;64.60;;;;;;10374014;28;20072;-67
2022/09/02 12:16:11;;;;;;;5.68;1.20;;;23.10;64.10;;;;;;10356123;28;20033;-67
2022/09/02 12:21:14;;;;;;;4.47;1.27;;;23.30;63.60;;;;;;10352543;28;20492;-67
2022/09/02 12:26:16;;;;;;;2.92;1.20;;;23.40;63.60;;;;;;10360241;28;20024;-64
2022/09/02 12:31:50;;;;;;;3.70;1.50;;;23.50;64.00;;;;;;10357612;28;20339;-66
2022/09/02 12:36:53;;;;;;;2.70;1.17;;;23.60;64.00;;;;;;10315558;28;20083;-66
2022/09/02 12:42:06;;;;;;;1.35;1.23;;;23.70;63.20;;;;;;10346311;22;20049;-65
2022/09/02 12:47:19;;;;;;;2.88;1.38;;;23.80;63.40;;;;;;10360319;28;20747;-67
2022/09/02 12:52:38;;;;;;;1.77;1.30;;;23.90;62.90;;;;;;10339804;28;20355;-66
2022/09/02 12:57:46;;;;;;;1.58;1.20;;;23.90;63.20;;;;;;10344251;28;20255;-67
2022/09/02 13:03:13;;;;;;;1.73;1.27;;;24.00;63.60;;;;;;10344558;28;20627;-67
2022/09/02 13:08:49;;;;;;;3.75;1.55;;;24.10;62.80;;;;;;10341408;28;20452;-67
2022/09/02 13:14:34;;;;;;;1.45;1.35;;;24.20;62.30;;;;;;10304470;28;20076;-66
2022/09/02 13:20:08;;;;;;;1.67;1.50;;;24.20;61.30;;;;;;10331573;28;20240;-66
2022/09/02 13:25:30;;;;;;;3.83;1.58;;;24.30;60.80;;;;;;10356344;28;20033;-66
2022/09/02 13:30:51;;;;;;;1.65;1.30;;;24.40;60.80;;;;;;10360238;28;20032;-68
2022/09/02 13:36:00;;;;;;;2.50;1.67;;;24.50;60.20;;;;;;10342840;28;20072;-66
2022/09/02 13:41:01;;;;;;;3.72;1.80;;;24.80;60.00;;;;;;10337094;28;20068;-66
2022/09/02 13:46:02;;;;;;;1.95;1.63;;;24.90;59.70;;;;;;10365350;28;20025;-66
2022/09/02 13:51:13;;;;;;;3.42;1.58;;;25.00;59.70;;;;;;10360561;28;20029;-66
2022/09/02 13:56:16;;;;;;;2.05;1.70;;;25.00;59.20;;;;;;10367146;28;20094;-66
2022/09/02 14:01:21;;;;;;;1.50;1.40;;;25.00;59.70;;;;;;10362170;28;20381;-66
2022/09/02 14:06:28;;;;;;;1.55;1.45;;;24.90;59.70;;;;;;10372653;28;20070;-67
2022/09/02 14:11:37;;;;;;;1.60;1.48;;;24.80;59.80;;;;;;10357262;28;20405;-66
2022/09/02 14:16:38;;;;;;;2.15;1.60;;;24.80;59.20;;;;;;10355951;28;20140;-67
2022/09/02 14:21:51;;;;;;;2.15;1.83;;;24.70;59.40;;;;;;10422899;22;20859;-66
2022/09/02 14:26:55;;;;;;;2.20;2.00;;;24.60;59.00;;;;;;10407892;28;20770;-67
2022/09/02 14:32:11;;;;;;;2.53;1.88;;;24.50;60.00;;;;;;10387816;28;20059;-67
2022/09/02 14:37:17;;;;;;;3.03;2.00;;;24.60;59.40;;;;;;10410295;28;20032;-66
2022/09/02 14:42:18;;;;;;;4.03;1.58;;;24.60;59.10;;;;;;10408164;28;20032;-68
2022/09/02 14:47:20;;;;;;;2.58;1.80;;;24.40;59.50;;;;;;10395132;28;20065;-66
2022/09/02 14:52:26;;;;;;;2.35;1.73;;;24.30;59.80;;;;;;10395476;28;20112;-66
2022/09/02 14:57:30;;;;;;;3.00;1.63;;;24.60;59.50;;;;;;10395473;28;20044;-65
2022/09/02 15:02:33;;;;;;;2.65;1.60;;;25.10;59.10;;;;;;10400908;28;20024;-65
2022/09/02 15:07:34;;;;;;;1.83;1.70;;;25.30;58.50;;;;;;10383796;28;20651;-67
2022/09/02 15:12:47;;;;;;;2.83;1.60;;;25.40;58.50;;;;;;10403585;28;20086;-67
2022/09/02 15:17:48;;;;;;;3.00;1.52;;;25.50;58.00;;;;;;10399502;28;20138;-67
2022/09/02 15:22:51;;;;;;;2.28;1.70;;;25.10;58.30;;;;;;10402657;28;20092;-67
2022/09/02 15:27:52;;;;;;;2.85;1.77;;;24.90;58.70;;;;;;10432824;22;20137;-70
2022/09/02 15:32:53;;;;;;;2.65;1.80;;;24.70;59.50;;;;;;10386870;28;20143;-69
2022/09/02 15:37:54;;;;;;;3.38;1.85;;;24.50;60.30;;;;;;10394606;28;20090;-68
2022/09/02 15:42:58;;;;;;;1.88;1.67;;;24.30;59.90;;;;;;10399493;28;20099;-68
2022/09/02 15:47:59;;;;;;;4.97;1.90;;;24.20;60.80;;;;;;10408570;28;20032;-68
2022/09/02 15:53:00;;;;;;;1.83;1.70;;;24.10;61.40;;;;;;10414905;28;20037;-67
2022/09/02 15:58:02;;;;;;;1.90;1.70;;;24.00;62.10;;;;;;10415765;28;20040;-66
2022/09/02 16:03:03;;;;;;;1.95;1.77;;;23.80;62.80;;;;;;10398746;28;20123;-67
2022/09/02 16:08:04;;;;;;;2.90;1.65;;;23.70;63.30;;;;;;10400380;28;20039;-67
2022/09/02 16:13:10;;;;;;;2.63;1.80;;;23.50;62.20;;;;;;10396647;28;20024;-74
2022/09/02 16:18:11;;;;;;;2.63;1.90;;;23.50;62.80;;;;;;10387116;28;20059;-68
2022/09/02 16:23:12;;;;;;;2.80;1.70;;;23.30;62.70;;;;;;10399548;28;20025;-66
2022/09/02 16:28:14;;;;;;;1.60;1.50;;;23.20;63.70;;;;;;10394488;28;20040;-66
2022/09/02 16:33:14;;;;;;;3.40;1.80;;;23.10;64.00;;;;;;10467097;22;20515;-68
2022/09/02 16:38:15;;;;;;;2.97;1.95;;;23.10;63.70;;;;;;10442753;28;20063;-66
2022/09/02 16:43:16;;;;;;;2.63;1.60;;;23.10;63.40;;;;;;10440415;28;20093;-66
2022/09/02 16:48:21;;;;;;;3.53;1.92;;;23.10;63.10;;;;;;10430518;22;20063;-66
2022/09/02 16:53:21;;;;;;;1.98;1.77;;;23.00;63.30;;;;;;10604731;22;20064;-65
2022/09/02 16:58:23;;;;;;;4.03;2.08;;;23.00;63.40;;;;;;10411431;28;20036;-66
2022/09/02 17:09:26;;;;;;;2.35;1.65;;;22.90;62.80;;;;;;10507373;22;20161;-68
2022/09/02 17:14:46;;;;;;;2.53;1.80;;;22.80;63.20;;;;;;10370288;28;20106;-65
2022/09/02 17:20:08;;;;;;;5.75;2.15;;;22.70;63.90;;;;;;10365314;28;20390;-65
2022/09/02 17:25:31;;;;;;;2.20;1.88;;;22.70;63.70;;;;;;10459954;22;20558;-65
2022/09/02 17:30:52;;;;;;;5.43;2.08;;;22.60;64.10;;;;;;10461047;28;20044;-65
2022/09/02 17:36:14;;;;;;;2.90;1.88;;;22.60;64.20;;;;;;10451594;28;20043;-65
2022/09/02 17:47:21;;;;;;;2.15;1.95;;;22.40;64.20;;;;;;10466365;28;20059;-64
2022/09/02 17:52:44;;;;;;;2.53;1.88;;;22.30;64.40;;;;;;10459355;28;20680;-65
2022/09/02 17:58:12;;;;;;;3.30;1.88;;;22.20;64.40;;;;;;10467982;28;20794;-64
2022/09/02 18:03:51;;;;;;;1.70;1.50;;;22.10;64.50;;;;;;10456136;28;20032;-63
2022/09/02 18:09:10;;;;;;;1.98;1.73;;;22.00;64.60;;;;;;10454925;28;20036;-64
2022/09/02 18:14:44;;;;;;;2.53;1.90;;;21.90;65.10;;;;;;10454353;28;21023;-63
2022/09/02 18:20:23;;;;;;;3.88;1.95;;;21.90;66.60;;;;;;10456088;28;21468;-64
2022/09/02 18:26:05;;;;;;;3.50;1.83;;;21.80;66.60;;;;;;10443954;28;20159;-64
2022/09/02 18:31:57;;;;;;;3.88;2.00;;;21.80;66.70;;;;;;10454581;28;20024;-64
2022/09/02 18:37:43;;;;;;;2.55;2.00;;;21.70;67.70;;;;;;10456575;28;20055;-64
2022/09/02 18:43:37;;;;;;;4.57;2.13;;;21.80;67.40;;;;;;10434711;28;20032;-65
2022/09/02 18:48:59;;;;;;;3.92;2.08;;;21.90;67.90;;;;;;10491681;28;20044;-65
2022/09/02 18:54:27;;;;;;;2.47;2.28;;;21.90;67.30;;;;;;10533441;28;20028;-64
2022/09/02 19:00:04;;;;;;;3.13;2.00;;;22.00;67.40;;;;;;10526007;28;20036;-64
2022/09/02 19:05:26;;;;;;;4.78;2.20;;;22.10;67.80;;;;;;10525518;28;20024;-65
2022/09/02 19:10:45;;;;;;;2.42;1.90;;;22.10;67.50;;;;;;10526185;28;20024;-64
2022/09/02 19:16:04;;;;;;;2.20;2.00;;;22.10;67.60;;;;;;10525642;28;20372;-64
2022/09/02 19:21:39;;;;;;;3.60;2.35;;;22.10;67.70;;;;;;10526180;28;20604;-64
2022/09/02 19:27:03;;;;;;;3.67;2.20;;;22.10;67.90;;;;;;10528910;28;20040;-63
2022/09/02 19:32:30;;;;;;;2.55;2.35;;;22.10;67.80;;;;;;10519821;28;20028;-63
2022/09/02 19:37:52;;;;;;;4.63;2.45;;;22.10;67.90;;;;;;10520275;28;20036;-64
2022/09/02 19:43:12;;;;;;;2.42;2.20;;;22.10;67.90;;;;;;10521449;28;20040;-63
2022/09/02 19:48:32;;;;;;;3.17;2.50;;;22.10;67.90;;;;;;10520342;28;20039;-64
2022/09/02 19:53:51;;;;;;;4.05;2.22;;;22.00;67.90;;;;;;10519403;28;20527;-63
2022/09/02 19:59:12;;;;;;;4.80;2.20;;;22.00;68.10;;;;;;10522158;28;20499;-63
2022/09/02 20:04:32;;;;;;;2.80;2.20;;;22.00;68.10;;;;;;10522423;28;20020;-63
2022/09/02 20:09:52;;;;;;;3.38;1.95;;;22.00;68.20;;;;;;10513236;28;20468;-63
2022/09/02 20:15:12;;;;;;;2.28;2.08;;;22.00;68.30;;;;;;10524298;28;20028;-62
2022/09/02 20:20:32;;;;;;;2.45;2.05;;;22.00;68.30;;;;;;10523579;28;20083;-62
2022/09/02 20:26:15;;;;;;;3.78;2.10;;;21.90;68.30;;;;;;10513643;28;20060;-64
2022/09/02 20:32:10;;;;;;;2.15;1.80;;;21.90;68.50;;;;;;10517989;28;20035;-63
2022/09/02 20:38:01;;;;;;;2.58;1.90;;;21.90;68.60;;;;;;10522997;28;20035;-63
2022/09/02 20:43:29;;;;;;;2.30;2.10;;;21.90;68.60;;;;;;10524113;28;20119;-63
2022/09/02 20:48:51;;;;;;;2.65;2.08;;;21.90;68.60;;;;;;10519463;28;20028;-62
2022/09/02 20:54:30;;;;;;;2.20;1.90;;;21.90;68.60;;;;;;10516943;28;20039;-63
2022/09/02 21:00:04;;;;;;;2.53;2.25;;;21.90;68.70;;;;;;10507694;28;20040;-62
2022/09/02 21:05:32;;;;;;;2.30;2.10;;;21.80;68.70;;;;;;10517620;28;20071;-63
2022/09/02 21:10:56;;;;;;;1.95;1.77;;;21.80;68.70;;;;;;10519950;28;20028;-62
2022/09/02 21:16:35;;;;;;;2.47;2.08;;;21.80;68.80;;;;;;10521677;28;20024;-62
2022/09/02 21:22:26;;;;;;;2.65;2.15;;;21.80;68.90;;;;;;10519048;28;20563;-63
2022/09/02 21:27:54;;;;;;;2.75;2.35;;;21.80;68.90;;;;;;10521069;28;20492;-63
2022/09/02 21:33:15;;;;;;;;;;;21.70;68.90;;;;;;10519620;28;20040;-62
2022/09/02 21:38:43;;;;;;;2.88;1.90;;;21.70;68.90;;;;;;10518035;28;20292;-63
2022/09/02 21:44:13;;;;;;;2.95;2.10;;;21.60;68.90;;;;;;10523989;28;20021;-63
2022/09/02 21:49:57;;;;;;;2.88;2.05;;;21.70;69.00;;;;;;10506910;28;20290;-63
2022/09/02 21:55:36;;;;;;;2.67;2.30;;;21.60;69.00;;;;;;10520010;28;20016;-63
2022/09/02 22:01:04;;;;;;;2.22;2.03;;;21.60;69.10;;;;;;10519870;28;20040;-63
2022/09/02 22:06:45;;;;;;;2.90;2.25;;;21.60;69.20;;;;;;10519756;28;20043;-63
2022/09/02 22:12:10;;;;;;;2.10;1.85;;;21.50;69.20;;;;;;10524563;28;20053;-63
2022/09/02 22:17:54;;;;;;;3.33;2.30;;;21.50;69.20;;;;;;10525674;28;20032;-64
2022/09/02 22:23:33;;;;;;;2.20;2.00;;;21.50;69.20;;;;;;10524091;28;20555;-63
2022/09/02 22:29:09;;;;;;;2.15;2.05;;;21.50;69.20;;;;;;10509903;28;20486;-63
2022/09/02 22:34:33;;;;;;;2.25;2.00;;;21.40;69.20;;;;;;10528004;28;20630;-63
2022/09/02 22:39:57;;;;;;;2.28;1.90;;;21.40;69.20;;;;;;10528513;28;20056;-61
2022/09/02 22:56:48;;;;;;;3.35;2.40;;;21.30;69.10;;;;;;10526246;28;20123;-63
2022/09/02 23:02:26;;;;;;;2.55;2.35;;;21.30;69.20;;;;;;10509332;28;20085;-63
2022/09/02 23:07:46;;;;;;;2.25;2.05;;;21.20;69.00;;;;;;10527767;28;20053;-62
2022/09/02 23:13:18;;;;;;;2.58;2.00;;;21.20;69.00;;;;;;10527633;28;20032;-63
2022/09/02 23:18:51;;;;;;;2.30;2.10;;;21.20;69.00;;;;;;10526895;28;20482;-63
2022/09/02 23:24:31;;;;;;;2.90;2.00;;;21.10;68.90;;;;;;10526333;28;20127;-63
2022/09/02 23:29:53;;;;;;;2.45;1.90;;;21.10;68.80;;;;;;10528250;28;20028;-63
2022/09/02 23:35:34;;;;;;;2.05;1.92;;;21.10;68.90;;;;;;10520262;28;20103;-63
2022/09/02 23:41:09;;;;;;;1.90;1.80;;;21.00;68.80;;;;;;10526757;28;20071;-62
2022/09/02 23:46:43;;;;;;;2.15;1.95;;;21.00;68.70;;;;;;10523057;28;20472;-62
2022/09/02 23:52:34;;;;;;;2.17;1.90;;;21.00;68.70;;;;;;10526021;28;20040;-63
2022/09/02 23:58:17;;;;;;;2.20;2.00;;;20.90;68.60;;;;;;10527508;28;20084;-63
